Accueil
METAR-TAF:

METAR-TAF

Aéroports :

Aéroport d'Ålesund

Ålesund, Norvège

latitude: 62-34N, longitude: 006-07E, altitude: 2 m

Observation

Le bulletin a été fait il y a 27 minutes, à 15:20 UTC
Vent 8 kt de sud-est
Température 3°C
Humidité 65%
Pression 1017 hPa
Visibilité 10 km ou plus
Quelques nuages à une hauteur de 2700 ft
Nuages fragmentés à une hauteur de 4100 ft

METAR: ENAL 171520Z 14008KT 9999 FEW027 BKN041 03/M03 Q1017

Heure: 16:47 (15:47 UTC)

Prévision

Le bulletin a été fait il y a 1 heure et 47 minutes, à 14:00 UTC
Prévision valable du 17 à 15 UTC au 17 à 23 UTC
Vent 12 kt de sud-est
Visibilité 10 km ou plus
Nuages fragmentés à une hauteur de 5000 ft

TAF: ENAL 171400Z 1715/1723 14012KT 9999 BKN050

Observations et prévisions météorologiques de plus de 4000 aéroports (messages METAR et TAF).

Les stations disponibles sont représentées par des disques jaunes et rouges sur la carte.

Passer la souris dessus pour voir le nom de la station.

Cliquer dessus pour voir les observations et prévisions météorologiques.

Pour changer de carte: cliquez sur les boutons verts avec une croix noire pour zoomer, sur le bouton vert avec un tiret pour effectuer un zoom arrière, ou sur les flèches vertes pour les cartes adjacentes.


METAR-TAF: